Time;durP1;ratioP1;P1;durP2;ratioP2;P2;SDS_P1;SDS_P2;PMS_P1;PMS_P2;Temp;Humidity;BMP_temperature;BMP_pressure;BME280_temperature;BME280_humidity;BME280_pressure;Samples;Min_cycle;Max_cycle;Signal;HPM_P1;HPM_P2
2023/10/11 11:01:28;;;;;;;12.55;7.03;;;20.90;99.90;;;;;;5165811;27;20392;-64
2023/10/11 11:03:57;;;;;;;11.43;7.15;;;21.50;99.90;;;;;;5154668;27;20050;-65
2023/10/11 11:06:23;;;;;;;9.20;6.18;;;21.60;99.90;;;;;;5154463;27;20110;-61
2023/10/11 11:08:49;;;;;;;9.20;6.50;;;21.50;99.90;;;;;;5164480;27;20038;-63
2023/10/11 11:11:35;;;;;;;8.50;6.70;;;21.30;99.90;;;;;;5165223;27;20567;-62
2023/10/11 11:14:15;;;;;;;9.77;6.07;;;21.30;99.90;;;;;;5163345;27;20533;-63
2023/10/11 11:16:44;;;;;;;9.60;6.32;;;21.40;99.90;;;;;;5152779;27;20121;-62
2023/10/11 11:19:16;;;;;;;10.45;6.60;;;21.40;99.90;;;;;;5156457;27;20046;-62
2023/10/11 11:21:46;;;;;;;9.13;6.45;;;21.40;99.90;;;;;;5143438;27;20061;-63
2023/10/11 11:24:19;;;;;;;9.15;6.20;;;21.30;99.90;;;;;;5143962;27;20457;-65
2023/10/11 11:26:46;;;;;;;9.63;5.90;;;21.40;99.90;;;;;;5142502;27;20083;-63
2023/10/11 11:29:31;;;;;;;9.57;6.40;;;21.50;99.90;;;;;;5153153;27;20040;-62
2023/10/11 11:31:59;;;;;;;9.38;6.00;;;21.50;99.90;;;;;;5152219;27;20042;-63
2023/10/11 11:34:34;;;;;;;8.57;5.22;;;21.40;99.90;;;;;;5165524;27;20042;-62
2023/10/11 11:37:04;;;;;;;7.75;5.60;;;21.50;99.90;;;;;;5164708;27;20085;-63
2023/10/11 11:39:36;;;;;;;7.13;4.97;;;21.50;99.90;;;;;;5160366;27;20039;-63
2023/10/11 11:42:24;;;;;;;8.52;5.38;;;21.40;99.90;;;;;;5146682;27;20039;-63
2023/10/11 11:44:51;;;;;;;9.05;5.50;;;21.40;99.90;;;;;;5135834;27;20100;-64
2023/10/11 11:47:23;;;;;;;9.30;5.93;;;21.30;99.90;;;;;;5161023;27;20095;-65
2023/10/11 11:49:48;;;;;;;7.55;5.38;;;21.30;99.90;;;;;;5164925;27;20041;-66
2023/10/11 11:52:17;;;;;;;9.27;5.63;;;21.20;99.90;;;;;;5140691;27;20039;-65
2023/10/11 11:54:43;;;;;;;8.52;5.68;;;21.10;99.90;;;;;;5148176;27;20058;-66
2023/10/11 11:57:09;;;;;;;8.18;5.50;;;21.10;99.90;;;;;;5132484;27;20119;-66
2023/10/11 11:59:35;;;;;;;8.70;5.13;;;21.00;99.90;;;;;;5142926;27;20059;-66
2023/10/11 12:02:01;;;;;;;8.45;5.40;;;21.00;99.90;;;;;;5158700;27;20480;-65
2023/10/11 12:04:32;;;;;;;7.47;5.25;;;21.00;99.90;;;;;;5158377;27;20047;-65
2023/10/11 12:07:01;;;;;;;7.13;4.85;;;21.00;99.90;;;;;;5163603;27;20469;-65
2023/10/11 12:09:34;;;;;;;9.02;5.32;;;21.10;99.90;;;;;;5159451;27;21469;-67
2023/10/11 12:12:03;;;;;;;9.60;5.53;;;21.20;99.90;;;;;;5131346;27;20096;-65
2023/10/11 12:14:29;;;;;;;9.18;5.13;;;21.20;99.90;;;;;;5145053;27;20042;-65
2023/10/11 12:16:55;;;;;;;8.98;5.25;;;21.10;99.90;;;;;;5138675;27;20069;-67
2023/10/11 12:19:22;;;;;;;9.23;5.28;;;21.30;99.90;;;;;;5132486;27;20043;-65
2023/10/11 12:21:49;;;;;;;7.60;5.05;;;21.50;99.90;;;;;;5129282;27;20406;-66
2023/10/11 12:24:15;;;;;;;8.07;5.10;;;21.60;99.90;;;;;;5115452;27;20708;-67
2023/10/11 12:26:42;;;;;;;8.43;4.78;;;21.70;99.90;;;;;;5108523;28;20123;-66
2023/10/11 12:29:10;;;;;;;7.63;4.68;;;21.80;99.90;;;;;;5107929;28;20467;-65
2023/10/11 12:31:39;;;;;;;8.35;4.25;;;21.80;99.90;;;;;;5107515;28;20125;-66
2023/10/11 12:34:09;;;;;;;7.63;4.57;;;21.70;99.90;;;;;;5108080;28;20497;-61
2023/10/11 12:36:39;;;;;;;6.88;4.47;;;21.60;99.90;;;;;;5108359;28;20043;-65
2023/10/11 12:39:20;;;;;;;8.18;4.35;;;21.50;99.90;;;;;;5106448;28;20055;-66
2023/10/11 12:41:48;;;;;;;7.55;4.32;;;21.40;99.90;;;;;;5107218;28;20051;-66
2023/10/11 12:44:18;;;;;;;7.10;4.32;;;21.40;99.90;;;;;;5108044;28;20040;-62
2023/10/11 12:46:44;;;;;;;7.05;4.38;;;21.50;99.90;;;;;;5114528;27;20043;-63
2023/10/11 12:49:13;;;;;;;10.93;4.53;;;21.30;99.90;;;;;;5127240;27;20129;-67
2023/10/11 12:51:42;;;;;;;5.43;3.92;;;21.30;99.90;;;;;;5146899;27;20039;-65
2023/10/11 12:54:10;;;;;;;10.80;4.22;;;21.30;99.90;;;;;;5147011;27;20046;-66
2023/10/11 12:56:37;;;;;;;7.50;4.35;;;21.20;99.90;;;;;;5127258;27;20047;-65
2023/10/11 12:59:06;;;;;;;9.35;4.22;;;21.20;99.90;;;;;;5112144;27;20046;-64
2023/10/11 13:01:40;;;;;;;6.20;4.30;;;21.20;99.90;;;;;;5123854;27;20637;-64
2023/10/11 13:04:13;;;;;;;9.25;4.10;;;21.20;99.90;;;;;;5111621;27;20035;-64
2023/10/11 13:06:39;;;;;;;9.02;4.35;;;21.10;99.90;;;;;;5137244;27;20096;-65
2023/10/11 13:09:15;;;;;;;6.10;4.38;;;21.20;99.90;;;;;;5124114;27;20050;-66
2023/10/11 13:11:44;;;;;;;6.03;4.07;;;21.20;99.90;;;;;;5114715;27;20081;-66
2023/10/11 13:14:21;;;;;;;6.40;3.85;;;21.30;99.90;;;;;;5113117;27;20051;-66
2023/10/11 13:16:54;;;;;;;7.20;3.97;;;21.30;99.90;;;;;;5113269;27;20035;-66
2023/10/11 13:19:26;;;;;;;7.10;4.22;;;21.40;99.90;;;;;;5116938;27;20654;-65
2023/10/11 13:21:53;;;;;;;6.43;4.00;;;21.50;99.90;;;;;;5117019;27;20055;-66
2023/10/11 13:24:28;;;;;;;6.68;4.07;;;21.70;99.90;;;;;;5113757;27;20043;-65
2023/10/11 13:26:55;;;;;;;9.05;4.00;;;21.80;99.90;;;;;;5114005;27;20066;-64
2023/10/11 13:29:27;;;;;;;6.75;4.00;;;21.80;99.90;;;;;;5116043;27;20039;-68
2023/10/11 13:31:57;;;;;;;6.93;3.92;;;21.80;99.90;;;;;;5120367;27;20051;-76
2023/10/11 13:34:33;;;;;;;7.15;4.28;;;21.70;99.90;;;;;;5115028;27;20062;-66
2023/10/11 13:37:00;;;;;;;8.02;3.85;;;21.60;99.90;;;;;;5113341;27;20043;-64
2023/10/11 13:39:27;;;;;;;6.15;3.90;;;21.60;99.90;;;;;;5114519;27;20027;-66
2023/10/11 13:41:56;;;;;;;7.88;3.78;;;21.50;99.90;;;;;;5117763;27;20042;-63
2023/10/11 13:44:24;;;;;;;10.75;3.72;;;21.50;99.90;;;;;;5114135;27;20091;-62
2023/10/11 13:46:52;;;;;;;8.60;3.95;;;21.30;99.90;;;;;;5116186;27;20112;-67
2023/10/11 13:49:27;;;;;;;7.10;3.42;;;21.30;99.90;;;;;;5114793;27;20081;-67
2023/10/11 13:52:01;;;;;;;6.68;3.15;;;21.20;99.90;;;;;;5113469;27;20031;-67
2023/10/11 13:57:00;;;;;;;8.10;4.00;;;21.20;99.90;;;;;;5113300;27;20035;-67
2023/10/11 13:59:28;;;;;;;6.82;3.78;;;21.20;99.90;;;;;;5112405;27;20043;-67
2023/10/11 14:05:13;;;;;;;5.63;3.42;;;21.20;99.90;;;;;;5114198;27;20043;-67
2023/10/11 14:07:54;;;;;;;5.65;3.25;;;21.10;99.90;;;;;;5106545;27;20047;-67
2023/10/11 14:10:13;;;;;;;6.47;3.85;;;21.10;99.90;;;;;;5103621;27;20043;-67
2023/10/11 14:12:40;;;;;;;7.43;3.40;;;21.00;99.90;;;;;;5115415;27;20035;-67
2023/10/11 14:15:08;;;;;;;6.68;3.75;;;21.00;99.90;;;;;;5112497;27;20043;-67
2023/10/11 14:17:38;;;;;;;5.78;3.65;;;21.00;99.90;;;;;;5113987;27;20051;-66
2023/10/11 14:20:19;;;;;;;7.93;3.53;;;21.00;99.90;;;;;;5112180;27;20181;-67
2023/10/11 14:22:46;;;;;;;7.10;3.67;;;20.90;99.90;;;;;;5113757;27;20048;-67
2023/10/11 14:25:11;;;;;;;6.93;3.03;;;20.90;99.90;;;;;;5113623;27;20047;-66
2023/10/11 14:27:41;;;;;;;5.53;3.30;;;20.90;99.90;;;;;;5113971;27;20047;-66
2023/10/11 14:30:12;;;;;;;5.53;3.33;;;20.90;99.90;;;;;;5111531;27;20624;-66
2023/10/11 14:32:39;;;;;;;5.85;3.03;;;20.80;99.90;;;;;;5112046;27;20051;-66
2023/10/11 14:35:08;;;;;;;7.00;3.60;;;20.80;99.90;;;;;;5109646;27;20390;-66
2023/10/11 14:37:35;;;;;;;10.68;3.30;;;20.80;99.90;;;;;;5111977;27;20039;-66
2023/10/11 14:40:01;;;;;;;7.15;3.38;;;21.00;99.90;;;;;;5112083;27;20042;-66
2023/10/11 14:42:29;;;;;;;5.93;3.17;;;21.00;99.90;;;;;;5111987;27;20043;-66
2023/10/11 14:44:56;;;;;;;6.82;3.30;;;21.00;99.90;;;;;;5113693;27;20122;-67
2023/10/11 14:47:24;;;;;;;4.93;3.30;;;21.00;99.90;;;;;;5112394;27;20035;-67
2023/10/11 14:49:51;;;;;;;6.68;3.30;;;21.00;99.90;;;;;;5113520;27;20047;-66
2023/10/11 14:52:18;;;;;;;4.57;3.05;;;21.00;99.90;;;;;;5110860;27;20091;-66
2023/10/11 14:54:45;;;;;;;7.05;3.60;;;20.90;99.90;;;;;;5113207;27;20402;-66
2023/10/11 14:57:11;;;;;;;4.75;2.92;;;20.90;99.90;;;;;;5113063;27;20393;-66
2023/10/11 14:59:37;;;;;;;4.88;3.00;;;20.80;99.90;;;;;;5112460;27;20039;-73
2023/10/11 15:02:02;;;;;;;7.07;3.28;;;20.90;99.90;;;;;;5117104;27;20592;-60
2023/10/11 15:04:29;;;;;;;5.90;3.50;;;20.80;99.90;;;;;;5113685;27;20114;-67
2023/10/11 15:06:56;;;;;;;5.47;3.40;;;20.90;99.90;;;;;;5114125;27;20071;-61
2023/10/11 15:09:22;;;;;;;5.53;3.25;;;20.90;99.90;;;;;;5112168;27;20140;-68
2023/10/11 15:11:48;;;;;;;5.82;3.20;;;20.90;99.90;;;;;;5114146;27;20043;-65
2023/10/11 15:14:14;;;;;;;11.35;3.00;;;20.90;99.90;;;;;;5114554;27;20050;-64
2023/10/11 15:16:40;;;;;;;7.15;3.10;;;20.80;99.90;;;;;;5110484;28;20043;-66
2023/10/11 15:19:09;;;;;;;6.28;3.40;;;20.80;99.90;;;;;;5113891;27;20092;-65
2023/10/11 15:21:38;;;;;;;5.43;3.30;;;20.80;99.90;;;;;;5112925;28;20048;-61
2023/10/11 15:24:07;;;;;;;6.95;3.10;;;20.80;99.90;;;;;;5113047;27;20171;-65
2023/10/11 15:26:36;;;;;;;6.97;3.05;;;20.70;99.90;;;;;;5113087;27;20597;-59
2023/10/11 15:29:06;;;;;;;6.05;2.90;;;20.80;99.90;;;;;;5111351;27;20035;-53
2023/10/11 15:31:32;;;;;;;6.45;3.28;;;20.70;99.90;;;;;;5118265;28;20048;-54
2023/10/11 15:34:01;;;;;;;6.68;2.90;;;20.70;99.90;;;;;;5111595;27;20043;-57
2023/10/11 15:36:28;;;;;;;8.43;3.25;;;20.60;99.90;;;;;;5112023;27;20043;-58
2023/10/11 15:38:54;;;;;;;6.03;2.75;;;20.60;99.90;;;;;;5113481;27;20040;-57
2023/10/11 15:41:20;;;;;;;5.47;3.30;;;20.70;99.90;;;;;;5093655;28;20383;-58
2023/10/11 15:43:46;;;;;;;6.20;2.90;;;20.60;99.90;;;;;;5110832;28;20140;-59
2023/10/11 15:46:12;;;;;;;9.02;3.47;;;20.60;99.90;;;;;;5111744;27;20520;-59
2023/10/11 15:48:38;;;;;;;8.40;3.50;;;20.60;99.90;;;;;;5116238;27;20047;-58
2023/10/11 15:51:09;;;;;;;7.15;3.28;;;20.60;99.90;;;;;;5116404;27;20095;-58
2023/10/11 15:53:39;;;;;;;6.30;2.80;;;20.60;99.90;;;;;;5117878;27;20168;-57
2023/10/11 15:56:05;;;;;;;5.72;2.78;;;20.50;99.90;;;;;;5113485;27;20102;-58
2023/10/11 15:58:33;;;;;;;7.78;3.15;;;20.60;99.90;;;;;;5118169;27;20437;-57
2023/10/11 16:01:03;;;;;;;7.32;3.20;;;20.50;99.90;;;;;;5110688;27;20573;-59
2023/10/11 16:03:39;;;;;;;8.10;3.60;;;20.50;99.90;;;;;;5115318;27;20232;-59
2023/10/11 16:06:09;;;;;;;8.68;3.60;;;20.50;99.90;;;;;;5115916;27;20397;-56
2023/10/11 16:08:35;;;;;;;10.70;6.78;;;20.60;99.90;;;;;;5116212;27;20085;-58
2023/10/11 16:11:04;;;;;;;7.50;5.25;;;20.60;99.90;;;;;;5116388;27;20035;-57
2023/10/11 16:13:31;;;;;;;10.27;5.25;;;20.60;99.90;;;;;;5116937;27;20062;-58
2023/10/11 16:16:01;;;;;;;12.32;6.07;;;20.60;99.90;;;;;;5113404;27;20035;-58
2023/10/11 16:18:27;;;;;;;9.88;5.50;;;20.60;99.90;;;;;;5113465;27;20047;-58
2023/10/11 16:20:54;;;;;;;8.40;5.38;;;20.60;99.90;;;;;;5112900;27;20058;-59
2023/10/11 16:23:20;;;;;;;9.88;5.43;;;20.60;99.90;;;;;;5117138;27;20043;-57
2023/10/11 16:25:46;;;;;;;10.05;5.10;;;20.60;99.90;;;;;;5116147;27;20068;-59
2023/10/11 16:28:12;;;;;;;8.80;5.18;;;20.70;99.90;;;;;;5113846;27;20039;-58
2023/10/11 16:30:37;;;;;;;9.48;4.75;;;20.70;99.90;;;;;;5115646;27;20039;-58
2023/10/11 16:33:05;;;;;;;7.43;5.25;;;20.70;99.90;;;;;;5115970;27;20104;-58
2023/10/11 16:35:31;;;;;;;8.43;5.07;;;20.70;99.90;;;;;;5116069;27;20084;-58
2023/10/11 16:37:57;;;;;;;8.77;4.90;;;20.70;99.90;;;;;;5113506;27;20039;-57
2023/10/11 16:40:22;;;;;;;7.20;4.00;;;20.60;99.90;;;;;;5113980;27;20161;-58
2023/10/11 16:42:49;;;;;;;8.35;3.97;;;20.60;99.90;;;;;;5112164;27;20077;-59
2023/10/11 16:45:15;;;;;;;8.25;4.60;;;20.60;99.90;;;;;;5113922;27;20108;-57
2023/10/11 16:47:45;;;;;;;8.27;4.50;;;20.60;99.90;;;;;;5118904;27;20397;-59
2023/10/11 16:50:12;;;;;;;9.15;4.57;;;20.60;99.90;;;;;;5115451;27;20106;-58
2023/10/11 16:52:40;;;;;;;9.05;4.60;;;20.60;99.90;;;;;;5111462;27;20062;-59
2023/10/11 16:55:10;;;;;;;7.22;3.97;;;20.60;99.90;;;;;;5113941;27;20110;-59
2023/10/11 16:57:37;;;;;;;7.10;3.95;;;20.60;99.90;;;;;;5115173;27;20398;-59
2023/10/11 17:00:04;;;;;;;8.68;3.90;;;20.50;99.90;;;;;;5117645;27;20086;-58
2023/10/11 17:02:29;;;;;;;6.75;3.90;;;20.50;99.90;;;;;;5114624;27;20054;-60
2023/10/11 17:04:55;;;;;;;11.65;4.45;;;20.50;99.90;;;;;;5104981;27;20657;-59
2023/10/11 17:07:24;;;;;;;7.20;3.78;;;20.50;99.90;;;;;;5112698;27;20035;-60
2023/10/11 17:09:52;;;;;;;8.88;4.10;;;20.40;99.90;;;;;;5113702;27;20047;-58
2023/10/11 17:12:19;;;;;;;8.85;4.03;;;20.30;99.90;;;;;;5118772;27;20398;-59
2023/10/11 17:14:44;;;;;;;8.98;4.10;;;20.30;99.90;;;;;;5114396;27;20114;-58
2023/10/11 17:17:10;;;;;;;6.32;3.70;;;20.30;99.90;;;;;;5112963;27;20028;-59
2023/10/11 17:19:35;;;;;;;6.47;3.38;;;20.30;99.90;;;;;;5112738;27;20051;-59
2023/10/11 17:22:02;;;;;;;7.90;4.00;;;20.30;99.90;;;;;;5112489;27;20403;-59
2023/10/11 17:24:29;;;;;;;8.20;3.80;;;20.30;99.90;;;;;;5112853;27;20058;-58
2023/10/11 17:26:56;;;;;;;7.78;3.90;;;20.20;99.90;;;;;;5110753;27;20051;-59
2023/10/11 17:29:22;;;;;;;7.43;3.38;;;20.20;99.90;;;;;;5112900;27;20095;-60
2023/10/11 17:31:48;;;;;;;7.47;4.10;;;20.20;99.90;;;;;;5111710;27;20130;-59
2023/10/11 17:34:15;;;;;;;7.53;4.20;;;20.20;99.90;;;;;;5111356;27;20122;-59
2023/10/11 17:36:41;;;;;;;6.20;3.50;;;20.20;99.90;;;;;;5111862;27;20058;-59
2023/10/11 17:39:07;;;;;;;9.00;3.92;;;20.20;99.90;;;;;;5112388;27;20081;-59
2023/10/11 17:41:33;;;;;;;7.57;4.05;;;20.20;99.90;;;;;;5111004;27;20083;-59
2023/10/11 17:44:01;;;;;;;6.82;4.15;;;20.20;99.90;;;;;;5110093;27;20047;-59
2023/10/11 17:46:27;;;;;;;6.65;3.47;;;20.20;99.90;;;;;;5111783;27;20063;-60
2023/10/11 17:48:52;;;;;;;8.57;4.18;;;20.20;99.90;;;;;;5110032;27;20085;-59
2023/10/11 17:51:18;;;;;;;6.20;3.50;;;20.20;99.90;;;;;;5095549;27;20043;-59
2023/10/11 17:53:44;;;;;;;6.30;3.83;;;20.20;99.90;;;;;;5112532;27;20054;-60
2023/10/11 17:56:14;;;;;;;6.28;3.78;;;20.20;99.90;;;;;;5112138;27;20135;-59
2023/10/11 17:58:40;;;;;;;10.02;4.10;;;20.20;99.90;;;;;;5111797;27;20054;-58
2023/10/11 18:01:06;;;;;;;7.03;3.97;;;20.20;99.90;;;;;;5109416;27;20058;-63
2023/10/11 18:03:31;;;;;;;8.10;4.15;;;20.20;99.90;;;;;;5110770;27;20034;-59
2023/10/11 18:05:57;;;;;;;8.27;4.22;;;20.30;99.90;;;;;;5112121;27;20035;-60
2023/10/11 18:08:23;;;;;;;10.27;4.15;;;20.30;99.90;;;;;;5112035;27;20054;-58
2023/10/11 18:10:48;;;;;;;9.82;4.53;;;20.30;99.90;;;;;;5112051;27;20534;-58
2023/10/11 18:13:15;;;;;;;7.38;3.75;;;20.30;99.90;;;;;;5110471;27;20056;-58
2023/10/11 18:15:42;;;;;;;7.60;4.35;;;20.30;99.90;;;;;;5109799;27;20086;-59
2023/10/11 18:18:10;;;;;;;8.80;4.38;;;20.30;99.90;;;;;;5109561;27;20264;-59
2023/10/11 18:20:37;;;;;;;8.50;4.13;;;20.40;99.90;;;;;;5111963;27;20047;-59
2023/10/11 18:23:05;;;;;;;9.32;4.63;;;20.30;99.90;;;;;;5111666;27;20047;-59
2023/10/11 18:25:34;;;;;;;9.32;4.90;;;20.30;99.90;;;;;;5110937;27;20095;-57
2023/10/11 18:28:05;;;;;;;9.32;5.15;;;20.40;99.90;;;;;;5108927;27;20084;-59
2023/10/11 18:30:31;;;;;;;10.35;5.10;;;20.40;99.90;;;;;;5109373;27;20042;-60
2023/10/11 18:32:56;;;;;;;8.27;4.47;;;20.40;99.90;;;;;;5110936;27;20062;-59
2023/10/11 18:35:22;;;;;;;7.03;4.65;;;20.40;99.90;;;;;;5110889;27;20032;-59
2023/10/11 18:37:50;;;;;;;10.10;5.20;;;20.40;99.90;;;;;;5112124;27;20066;-59
2023/10/11 18:40:22;;;;;;;8.68;5.00;;;20.30;99.90;;;;;;5111087;27;20580;-59
2023/10/11 18:42:55;;;;;;;9.05;4.90;;;20.40;99.90;;;;;;5111022;27;20055;-59
2023/10/11 18:45:21;;;;;;;9.32;5.03;;;20.40;99.90;;;;;;5109431;27;20039;-61
2023/10/11 18:47:49;;;;;;;9.38;5.10;;;20.40;99.90;;;;;;5110866;27;20042;-61
2023/10/11 18:50:15;;;;;;;9.90;5.32;;;20.40;99.90;;;;;;5109327;27;20048;-61
2023/10/11 18:52:43;;;;;;;12.38;5.72;;;20.40;99.90;;;;;;5110666;27;20073;-60
2023/10/11 18:55:09;;;;;;;10.00;5.05;;;20.40;99.90;;;;;;5111068;27;20130;-61
2023/10/11 18:57:39;;;;;;;9.57;5.75;;;20.40;99.90;;;;;;5112156;27;20621;-60
2023/10/11 19:00:11;;;;;;;8.43;5.28;;;20.40;99.90;;;;;;5110374;27;20051;-60
2023/10/11 19:02:47;;;;;;;9.25;5.03;;;20.30;99.90;;;;;;5115844;28;20044;-61
2023/10/11 19:05:18;;;;;;;8.88;5.32;;;20.40;99.90;;;;;;5108644;28;20059;-61
2023/10/11 19:07:50;;;;;;;9.30;4.95;;;20.30;99.90;;;;;;5111370;28;20050;-61
2023/10/11 19:10:18;;;;;;;10.00;5.50;;;20.30;99.90;;;;;;5111466;27;20105;-61
2023/10/11 19:12:44;;;;;;;9.75;5.40;;;20.30;99.90;;;;;;5110856;28;20047;-61
2023/10/11 19:15:10;;;;;;;8.18;5.22;;;20.30;99.90;;;;;;5110850;27;20130;-61
2023/10/11 19:17:37;;;;;;;9.02;4.97;;;20.30;99.90;;;;;;5109603;28;20500;-61
2023/10/11 19:20:09;;;;;;;8.32;5.30;;;20.30;99.90;;;;;;5110360;28;20635;-60
2023/10/11 19:22:35;;;;;;;9.88;5.40;;;20.30;99.90;;;;;;5113158;27;20043;-61
2023/10/11 19:25:01;;;;;;;10.88;5.75;;;20.30;99.90;;;;;;5114087;27;20056;-61
2023/10/11 19:27:26;;;;;;;10.20;5.63;;;20.30;99.90;;;;;;5114911;27;20035;-61
2023/10/11 19:29:56;;;;;;;9.25;5.80;;;20.30;99.90;;;;;;5112475;27;20929;-61
2023/10/11 19:32:22;;;;;;;10.27;5.80;;;20.30;99.90;;;;;;5113894;27;20061;-62
2023/10/11 19:34:52;;;;;;;12.20;6.15;;;20.30;99.90;;;;;;5115530;27;20183;-61
2023/10/11 19:37:18;;;;;;;10.75;6.05;;;20.30;99.90;;;;;;5114551;27;20493;-61
2023/10/11 19:39:45;;;;;;;7.50;4.95;;;20.30;99.90;;;;;;5114464;27;20051;-61
2023/10/11 19:42:11;;;;;;;10.43;5.63;;;20.30;99.90;;;;;;5114462;27;20474;-61
2023/10/11 19:44:36;;;;;;;7.57;5.40;;;20.30;99.90;;;;;;5114183;27;20070;-61
2023/10/11 19:47:02;;;;;;;12.25;5.68;;;20.30;99.90;;;;;;5112006;27;20093;-59
2023/10/11 19:49:27;;;;;;;12.18;6.20;;;20.30;99.90;;;;;;5114459;27;20548;-59
2023/10/11 19:51:53;;;;;;;11.98;5.50;;;20.30;99.90;;;;;;5113702;27;20047;-60
2023/10/11 19:54:19;;;;;;;9.18;5.65;;;20.30;99.90;;;;;;5114194;27;20117;-61
2023/10/11 19:56:44;;;;;;;11.88;5.93;;;20.30;99.90;;;;;;5114105;27;20055;-61
2023/10/11 19:59:10;;;;;;;9.68;5.65;;;20.40;99.90;;;;;;5114740;27;20134;-60
2023/10/11 20:01:36;;;;;;;9.68;5.47;;;20.50;99.90;;;;;;5114691;27;20429;-61
2023/10/11 20:04:04;;;;;;;12.02;5.70;;;20.50;99.90;;;;;;5113704;27;20051;-61
2023/10/11 20:06:29;;;;;;;11.48;5.32;;;20.60;99.90;;;;;;5113592;27;20167;-60
2023/10/11 20:08:55;;;;;;;9.60;5.38;;;20.60;99.90;;;;;;5114210;27;20159;-61
2023/10/11 20:11:21;;;;;;;8.43;5.45;;;20.60;99.90;;;;;;5113814;27;20048;-61
2023/10/11 20:13:47;;;;;;;10.52;6.00;;;20.70;99.90;;;;;;5115081;27;20035;-61
2023/10/11 20:16:16;;;;;;;11.25;5.55;;;20.70;99.90;;;;;;5113437;27;20047;-61
2023/10/11 20:18:46;;;;;;;9.82;5.53;;;20.70;99.90;;;;;;5112666;27;20047;-62
2023/10/11 20:21:18;;;;;;;10.48;5.72;;;20.70;99.90;;;;;;5111331;27;20098;-61
2023/10/11 20:23:51;;;;;;;9.82;6.00;;;20.70;99.90;;;;;;5113590;27;20040;-61
2023/10/11 20:26:22;;;;;;;9.80;5.70;;;20.80;99.90;;;;;;5112759;27;20134;-61
2023/10/11 20:28:48;;;;;;;12.15;6.00;;;20.80;99.90;;;;;;5114350;27;20047;-62
2023/10/11 20:31:15;;;;;;;9.10;5.70;;;20.80;99.90;;;;;;5111418;27;20047;-60
2023/10/11 20:33:42;;;;;;;11.10;6.03;;;20.80;99.90;;;;;;5110866;27;20035;-62
2023/10/11 20:36:11;;;;;;;10.93;5.72;;;20.80;99.90;;;;;;5114160;27;20050;-62
2023/10/11 20:38:39;;;;;;;10.48;5.97;;;20.80;99.90;;;;;;5111344;27;20055;-62
2023/10/11 20:41:08;;;;;;;10.07;5.60;;;20.90;99.90;;;;;;5111803;27;20401;-62
2023/10/11 20:43:34;;;;;;;12.60;5.80;;;20.90;99.90;;;;;;5111564;27;20055;-63
2023/10/11 20:46:00;;;;;;;10.38;6.03;;;20.90;99.90;;;;;;5111536;27;20539;-61
2023/10/11 20:48:26;;;;;;;11.63;6.28;;;20.90;99.90;;;;;;5111865;27;20047;-62
2023/10/11 20:50:52;;;;;;;10.98;5.78;;;20.90;99.90;;;;;;5112393;27;20112;-61
2023/10/11 20:53:18;;;;;;;11.80;5.75;;;20.90;99.90;;;;;;5114297;27;20431;-62
2023/10/11 20:55:45;;;;;;;11.45;6.25;;;20.90;99.90;;;;;;5112643;27;20051;-61
2023/10/11 21:00:42;;;;;;;10.40;5.93;;;20.90;99.90;;;;;;5115256;27;20402;-62
2023/10/11 21:03:10;;;;;;;10.32;6.03;;;20.90;99.90;;;;;;5118226;27;20120;-62
2023/10/11 21:05:45;;;;;;;9.68;6.10;;;20.90;99.90;;;;;;5115465;27;20039;-63
2023/10/11 21:08:12;;;;;;;8.95;5.60;;;20.90;99.90;;;;;;5124566;27;20377;-62
2023/10/11 21:10:43;;;;;;;10.95;6.35;;;20.90;99.90;;;;;;5127444;27;20093;-62
2023/10/11 21:13:08;;;;;;;10.13;6.10;;;20.90;99.90;;;;;;5126246;27;20145;-60
2023/10/11 21:15:36;;;;;;;8.70;5.80;;;20.80;99.90;;;;;;5124399;27;20126;-61
2023/10/11 21:18:03;;;;;;;10.77;5.38;;;20.90;99.90;;;;;;5126215;27;20054;-60
2023/10/11 21:20:29;;;;;;;9.55;5.60;;;20.80;99.90;;;;;;5126326;27;20691;-60
2023/10/11 21:22:55;;;;;;;8.95;5.18;;;20.80;99.90;;;;;;5126322;27;20086;-60
2023/10/11 21:25:20;;;;;;;7.45;4.93;;;20.80;99.90;;;;;;5125582;27;20251;-60
2023/10/11 21:27:46;;;;;;;9.57;5.30;;;20.80;99.90;;;;;;5138585;27;20063;-62
2023/10/11 21:30:17;;;;;;;6.70;5.00;;;20.80;99.90;;;;;;5124950;27;20059;-62
2023/10/11 21:32:44;;;;;;;10.82;5.15;;;20.80;99.90;;;;;;5125949;27;20039;-60
2023/10/11 21:35:23;;;;;;;7.88;4.97;;;20.80;99.90;;;;;;5126002;27;20055;-61
2023/10/11 21:37:50;;;;;;;9.52;4.88;;;20.80;99.90;;;;;;5126917;27;20062;-62
2023/10/11 21:40:16;;;;;;;6.60;4.57;;;20.80;99.90;;;;;;5124396;27;20062;-62
2023/10/11 21:42:42;;;;;;;7.68;4.53;;;20.80;99.90;;;;;;5126208;27;20081;-62
2023/10/11 21:45:12;;;;;;;9.57;4.47;;;20.70;99.90;;;;;;5121039;27;20078;-62
2023/10/11 21:47:45;;;;;;;7.75;4.38;;;20.70;99.90;;;;;;5124257;27;20039;-62
2023/10/11 21:50:12;;;;;;;12.23;4.80;;;20.70;99.90;;;;;;5125748;27;20061;-63
2023/10/11 21:52:41;;;;;;;7.97;4.35;;;20.70;99.90;;;;;;5125712;27;20035;-62
2023/10/11 21:55:17;;;;;;;11.23;4.65;;;20.70;99.90;;;;;;5125029;27;20054;-62
2023/10/11 21:57:44;;;;;;;7.10;4.20;;;20.70;99.90;;;;;;5126882;27;20079;-61
2023/10/11 22:00:14;;;;;;;7.85;4.32;;;20.70;99.90;;;;;;5129586;27;20130;-62
2023/10/11 22:02:49;;;;;;;7.93;4.75;;;20.70;99.90;;;;;;5124812;27;20081;-62
2023/10/11 22:05:19;;;;;;;8.98;4.20;;;20.70;99.90;;;;;;5125672;27;20039;-62
2023/10/11 22:07:49;;;;;;;5.78;3.72;;;20.70;99.90;;;;;;5129874;27;20123;-62
2023/10/11 22:10:17;;;;;;;9.20;3.95;;;20.70;99.90;;;;;;5132776;27;20058;-62
2023/10/11 22:12:44;;;;;;;7.50;4.25;;;20.70;99.90;;;;;;5135801;27;20547;-62
2023/10/11 22:15:11;;;;;;;15.30;4.28;;;20.70;99.90;;;;;;5123985;27;20130;-61
2023/10/11 22:17:38;;;;;;;7.47;3.92;;;20.60;99.90;;;;;;5124555;27;20459;-62
2023/10/11 22:20:04;;;;;;;6.60;3.47;;;20.60;99.90;;;;;;5124714;27;20069;-61
2023/10/11 22:22:33;;;;;;;6.57;3.95;;;20.60;99.90;;;;;;5130021;27;20051;-62
2023/10/11 22:24:59;;;;;;;7.80;3.85;;;20.60;99.90;;;;;;5130254;27;20050;-62
2023/10/11 22:27:26;;;;;;;6.07;3.53;;;20.60;99.90;;;;;;5128814;27;20055;-63
2023/10/11 22:29:51;;;;;;;7.15;3.70;;;20.60;99.90;;;;;;5124438;27;20047;-63
2023/10/11 22:32:17;;;;;;;6.78;3.40;;;20.60;99.90;;;;;;5126406;27;20112;-62
2023/10/11 22:34:43;;;;;;;9.20;3.67;;;20.60;99.90;;;;;;5126906;27;20039;-62
2023/10/11 22:37:12;;;;;;;8.48;3.53;;;20.60;99.90;;;;;;5127284;27;20054;-63
2023/10/11 22:39:41;;;;;;;7.10;3.45;;;20.60;99.90;;;;;;5118892;27;20047;-63
2023/10/11 22:42:07;;;;;;;6.05;3.30;;;20.60;99.90;;;;;;5125148;27;20047;-62
2023/10/11 22:44:33;;;;;;;4.75;3.10;;;20.50;99.90;;;;;;5118570;27;20045;-66
2023/10/11 22:46:59;;;;;;;8.77;3.53;;;20.60;99.90;;;;;;5124023;27;20401;-67
2023/10/11 22:49:25;;;;;;;7.00;3.50;;;20.70;99.90;;;;;;5124778;27;20067;-68
2023/10/11 22:51:50;;;;;;;5.10;3.13;;;20.70;99.90;;;;;;5124033;27;20051;-67
2023/10/11 22:54:17;;;;;;;8.40;3.15;;;20.80;99.90;;;;;;5124888;27;20042;-67
2023/10/11 22:56:43;;;;;;;5.93;3.10;;;20.70;99.90;;;;;;5117300;27;20070;-66
2023/10/11 22:59:09;;;;;;;6.38;3.05;;;20.70;99.90;;;;;;5106300;28;20690;-66
2023/10/11 23:01:36;;;;;;;5.72;3.33;;;20.70;99.90;;;;;;5104394;28;20506;-66
2023/10/11 23:04:03;;;;;;;6.13;3.10;;;20.70;99.90;;;;;;5105110;28;20047;-67
2023/10/11 23:06:30;;;;;;;6.25;2.53;;;20.60;99.90;;;;;;5105017;28;20657;-67
2023/10/11 23:08:57;;;;;;;6.05;2.78;;;20.60;99.90;;;;;;5104900;28;20054;-66
2023/10/11 23:11:23;;;;;;;6.97;2.80;;;20.60;99.90;;;;;;5105098;28;20497;-66
2023/10/11 23:13:49;;;;;;;9.68;2.78;;;20.50;99.90;;;;;;5103665;28;20090;-67
2023/10/11 23:16:19;;;;;;;4.97;2.60;;;20.50;99.90;;;;;;5104097;28;20086;-66
2023/10/11 23:18:46;;;;;;;4.72;2.47;;;20.50;99.90;;;;;;5105193;28;20031;-66
2023/10/11 23:21:20;;;;;;;6.68;2.75;;;20.50;99.90;;;;;;5104521;28;20151;-66
2023/10/11 23:23:50;;;;;;;;;;;20.40;99.90;;;;;;5112733;27;20043;-66
2023/10/11 23:26:27;;;;;;;4.78;2.90;;;20.40;99.90;;;;;;5146344;27;20317;-66
2023/10/11 23:28:57;;;;;;;8.05;3.38;;;20.40;99.90;;;;;;5132298;27;20076;-67
2023/10/11 23:31:24;;;;;;;6.57;2.65;;;20.40;99.90;;;;;;5125338;27;20051;-67
2023/10/11 23:33:50;;;;;;;5.55;2.72;;;20.40;99.90;;;;;;5131656;27;20057;-66
2023/10/11 23:36:22;;;;;;;4.60;2.58;;;20.40;99.90;;;;;;5145067;27;20045;-66
2023/10/11 23:39:08;;;;;;;6.03;2.55;;;20.40;99.90;;;;;;5146799;27;20105;-66
2023/10/11 23:41:35;;;;;;;5.50;2.65;;;20.30;99.90;;;;;;5146582;27;20046;-66
2023/10/11 23:44:18;;;;;;;6.60;2.90;;;20.30;99.90;;;;;;5144420;27;20045;-65
2023/10/11 23:46:57;;;;;;;7.25;2.75;;;20.30;99.90;;;;;;5145801;27;20046;-66
2023/10/11 23:49:30;;;;;;;4.72;2.55;;;20.30;99.90;;;;;;5105699;28;20040;-66
2023/10/11 23:52:06;;;;;;;6.35;2.20;;;20.30;99.90;;;;;;5104010;28;20097;-66
2023/10/11 23:54:38;;;;;;;4.43;2.30;;;20.30;99.90;;;;;;5104708;28;20043;-66
2023/10/11 23:57:05;;;;;;;6.30;2.70;;;20.20;99.90;;;;;;5113947;28;20039;-66
2023/10/11 23:59:34;;;;;;;5.13;2.50;;;20.20;99.90;;;;;;5122915;27;20451;-66
